Time;durP1;ratioP1;P1;durP2;ratioP2;P2;SDS_P1;SDS_P2;PMS_P1;PMS_P2;Temp;Humidity;BMP_temperature;BMP_pressure;BME280_temperature;BME280_humidity;BME280_pressure;Samples;Min_cycle;Max_cycle;Signal;HPM_P1;HPM_P2
2022/01/20 00:03:17;;;;;;;0.32;0.32;;;3.30;96.10;;;;;;5054125;28;20173;-69
2022/01/20 00:08:28;;;;;;;0.30;0.30;;;3.40;96.00;;;;;;5054333;28;20203;-69
2022/01/20 00:27:19;;;;;;;0.40;0.40;;;2.60;98.10;;;;;;5053736;28;20224;-69
2022/01/20 00:32:20;;;;;;;0.40;0.40;;;2.90;97.90;;;;;;5053886;28;20309;-69
2022/01/20 00:37:28;;;;;;;0.40;0.40;;;2.70;97.60;;;;;;5053613;28;20182;-69
2022/01/20 00:39:55;;;;;;;0.73;0.73;;;2.70;98.00;;;;;;5053649;28;20160;-69
2022/01/20 00:42:21;;;;;;;0.30;0.30;;;2.70;98.30;;;;;;5053570;28;20171;-69
2022/01/20 00:44:47;;;;;;;0.30;0.30;;;2.90;98.20;;;;;;5053639;28;20592;-69
2022/01/20 00:47:15;;;;;;;0.40;0.40;;;3.00;98.00;;;;;;5053289;28;20178;-69
2022/01/20 00:49:41;;;;;;;0.40;0.40;;;3.10;97.90;;;;;;5053363;28;20174;-69
2022/01/20 00:52:07;;;;;;;0.30;0.30;;;3.10;97.80;;;;;;5053658;28;20180;-69
2022/01/20 00:54:34;;;;;;;0.30;0.30;;;3.10;97.60;;;;;;5053615;28;20180;-69
2022/01/20 00:57:00;;;;;;;0.30;0.30;;;3.20;97.70;;;;;;5053149;28;20173;-69
2022/01/20 00:59:29;;;;;;;0.40;0.40;;;3.20;97.30;;;;;;5053299;28;20219;-69
2022/01/20 01:01:59;;;;;;;0.30;0.30;;;3.00;97.20;;;;;;5053329;28;20172;-68
2022/01/20 01:04:26;;;;;;;0.30;0.30;;;3.00;97.60;;;;;;5052028;28;20654;-69
2022/01/20 01:07:24;;;;;;;0.40;0.40;;;3.10;97.60;;;;;;5054508;28;20569;-69
2022/01/20 01:09:47;;;;;;;0.30;0.30;;;3.20;97.50;;;;;;5059741;28;20638;-69
2022/01/20 01:12:18;;;;;;;0.30;0.30;;;3.20;97.60;;;;;;5060057;28;20183;-69
2022/01/20 01:14:49;;;;;;;0.32;0.32;;;3.10;97.40;;;;;;5060118;28;20203;-69
2022/01/20 01:22:29;;;;;;;0.40;0.40;;;3.20;97.50;;;;;;5060032;28;20183;-69
2022/01/20 01:24:56;;;;;;;0.38;0.38;;;3.00;97.20;;;;;;5059765;28;20215;-69
2022/01/20 01:27:23;;;;;;;0.38;0.38;;;3.00;97.50;;;;;;5059549;28;20180;-69
2022/01/20 01:32:34;;;;;;;0.30;0.30;;;2.90;97.70;;;;;;5059929;28;20259;-69
2022/01/20 01:35:04;;;;;;;0.30;0.30;;;2.90;98.00;;;;;;5059719;28;20530;-69
2022/01/20 01:40:15;;;;;;;0.40;0.40;;;3.00;97.60;;;;;;5068666;28;20191;-69
2022/01/20 01:42:47;;;;;;;0.30;0.30;;;3.10;97.70;;;;;;5059831;28;20256;-69
2022/01/20 01:45:30;;;;;;;0.32;0.32;;;3.00;97.60;;;;;;5059739;28;20197;-69
2022/01/20 01:47:57;;;;;;;0.40;0.40;;;3.10;97.60;;;;;;5059857;28;20556;-69
2022/01/20 01:50:23;;;;;;;0.30;0.30;;;3.20;97.50;;;;;;5059902;28;20574;-69
2022/01/20 01:52:49;;;;;;;0.30;0.30;;;3.30;97.30;;;;;;5059721;28;20268;-69
2022/01/20 01:55:15;;;;;;;0.30;0.30;;;3.30;97.10;;;;;;5059773;28;20255;-69
2022/01/20 01:57:42;;;;;;;0.30;0.30;;;3.30;97.10;;;;;;5059501;28;20196;-69
2022/01/20 02:00:10;;;;;;;0.30;0.30;;;3.30;97.20;;;;;;5059449;28;20199;-69
2022/01/20 02:02:36;;;;;;;0.40;0.40;;;3.40;97.10;;;;;;5059498;28;20704;-69
2022/01/20 02:05:04;;;;;;;0.30;0.30;;;3.40;97.00;;;;;;5059616;28;20196;-69
2022/01/20 02:21:01;;;;;;;0.30;0.30;;;3.30;96.70;;;;;;5056202;28;20255;-69
2022/01/20 02:23:27;;;;;;;0.30;0.30;;;3.20;96.70;;;;;;5056179;28;20638;-69
2022/01/20 02:25:53;;;;;;;0.30;0.30;;;3.20;96.70;;;;;;5055866;28;20454;-69
2022/01/20 02:28:19;;;;;;;0.30;0.30;;;3.30;96.70;;;;;;5055889;28;20193;-69
2022/01/20 02:30:45;;;;;;;0.30;0.30;;;3.40;96.60;;;;;;5056182;28;20413;-69
2022/01/20 02:33:16;;;;;;;0.30;0.30;;;3.40;96.60;;;;;;5056134;28;20801;-69
2022/01/20 02:35:47;;;;;;;0.30;0.30;;;3.40;96.50;;;;;;5055748;28;20168;-69
2022/01/20 02:38:19;;;;;;;0.40;0.40;;;3.40;96.60;;;;;;5055951;28;20212;-69
2022/01/20 02:45:58;;;;;;;0.30;0.30;;;3.20;96.80;;;;;;5055531;28;20295;-69
2022/01/20 02:48:24;;;;;;;0.30;0.30;;;3.20;97.10;;;;;;5055526;28;20191;-69
2022/01/20 02:50:50;;;;;;;0.30;0.30;;;3.20;97.20;;;;;;5055686;28;20635;-69
2022/01/20 02:53:16;;;;;;;0.40;0.40;;;3.30;97.20;;;;;;5055708;28;20180;-69
2022/01/20 02:55:42;;;;;;;0.40;0.40;;;3.20;97.10;;;;;;5055482;28;20230;-69
2022/01/20 02:58:08;;;;;;;0.30;0.30;;;3.20;97.20;;;;;;5055505;28;20564;-69
2022/01/20 03:00:35;;;;;;;0.30;0.30;;;3.40;97.20;;;;;;5055403;28;20197;-69
2022/01/20 03:03:02;;;;;;;0.35;0.35;;;3.30;96.90;;;;;;5055418;28;20168;-69
2022/01/20 03:05:31;;;;;;;0.35;0.35;;;2.90;96.50;;;;;;5053924;28;20682;-69
2022/01/20 03:07:57;;;;;;;0.30;0.30;;;2.90;97.20;;;;;;5055793;28;20200;-69
2022/01/20 03:10:23;;;;;;;0.30;0.30;;;2.90;97.40;;;;;;5055267;28;20180;-69
2022/01/20 03:12:49;;;;;;;0.30;0.30;;;3.10;97.40;;;;;;5055353;28;20634;-69
2022/01/20 03:15:15;;;;;;;0.30;0.30;;;3.10;97.20;;;;;;5055551;28;20180;-69
2022/01/20 03:17:41;;;;;;;0.40;0.40;;;3.10;97.30;;;;;;5054876;28;20429;-69
2022/01/20 03:20:07;;;;;;;0.30;0.30;;;3.00;97.20;;;;;;5055323;28;20419;-69
2022/01/20 03:22:33;;;;;;;0.30;0.30;;;3.10;97.30;;;;;;5055243;28;20407;-69
2022/01/20 03:24:58;;;;;;;0.30;0.30;;;3.20;97.30;;;;;;5055053;28;20211;-69
2022/01/20 03:27:25;;;;;;;0.30;0.30;;;3.20;97.00;;;;;;5054776;28;20164;-69
2022/01/20 03:29:50;;;;;;;0.38;0.38;;;3.20;97.00;;;;;;5054448;28;20162;-69
2022/01/20 03:32:16;;;;;;;0.33;0.33;;;3.20;97.00;;;;;;5054236;28;20178;-69
2022/01/20 03:34:42;;;;;;;0.30;0.30;;;3.20;97.10;;;;;;5054914;28;20234;-69
2022/01/20 03:37:08;;;;;;;0.40;0.40;;;3.10;97.30;;;;;;5054744;28;20169;-69
2022/01/20 03:39:33;;;;;;;0.30;0.30;;;3.10;97.40;;;;;;5054671;28;20407;-69
2022/01/20 03:41:59;;;;;;;0.30;0.30;;;3.10;97.50;;;;;;5054640;28;20529;-69
2022/01/20 03:44:25;;;;;;;0.30;0.30;;;3.10;97.40;;;;;;5054558;28;20165;-69
2022/01/20 03:46:51;;;;;;;0.40;0.40;;;3.10;97.50;;;;;;5054694;28;20632;-69
2022/01/20 03:52:06;;;;;;;0.30;0.30;;;2.70;97.80;;;;;;5056782;28;20184;-69
2022/01/20 03:54:33;;;;;;;0.38;0.38;;;2.70;98.30;;;;;;5054334;28;20181;-69
2022/01/20 03:56:59;;;;;;;0.32;0.32;;;2.90;98.20;;;;;;5054436;28;20318;-69
2022/01/20 03:59:25;;;;;;;0.30;0.30;;;3.10;98.00;;;;;;5054159;28;20299;-69
2022/01/20 04:01:51;;;;;;;0.40;0.40;;;3.20;97.70;;;;;;5054416;28;20790;-69
2022/01/20 04:04:17;;;;;;;0.30;0.30;;;3.20;97.50;;;;;;5054443;28;20176;-69
2022/01/20 04:06:42;;;;;;;0.30;0.30;;;3.00;97.30;;;;;;5053895;28;20201;-69
2022/01/20 04:09:08;;;;;;;0.30;0.30;;;3.00;97.90;;;;;;5054152;28;20196;-69
2022/01/20 04:11:33;;;;;;;0.40;0.40;;;3.00;97.80;;;;;;5054329;28;20547;-69
2022/01/20 04:14:02;;;;;;;0.30;0.30;;;3.00;98.00;;;;;;5054421;28;20653;-69
2022/01/20 04:16:49;;;;;;;0.50;0.50;;;3.20;98.00;;;;;;5053914;28;20623;-69
2022/01/20 04:19:15;;;;;;;0.30;0.30;;;3.10;97.60;;;;;;5054123;28;20684;-69
2022/01/20 04:21:42;;;;;;;0.30;0.30;;;3.20;97.70;;;;;;5054118;28;20212;-68
2022/01/20 04:24:09;;;;;;;0.30;0.30;;;3.20;97.60;;;;;;5053908;28;20172;-69
2022/01/20 04:26:36;;;;;;;0.30;0.30;;;3.10;97.70;;;;;;5053827;28;20205;-69
2022/01/20 04:29:04;;;;;;;0.40;0.40;;;3.00;97.60;;;;;;5053821;28;20270;-69
2022/01/20 04:31:30;;;;;;;0.30;0.30;;;3.00;97.80;;;;;;5053879;28;20185;-69
2022/01/20 04:33:57;;;;;;;0.30;0.30;;;3.00;97.70;;;;;;5053911;28;20169;-69
2022/01/20 04:36:30;;;;;;;0.30;0.30;;;3.00;97.90;;;;;;5053548;28;20594;-68
2022/01/20 04:38:56;;;;;;;0.30;0.30;;;2.90;97.80;;;;;;5053630;28;20268;-69
2022/01/20 04:41:22;;;;;;;0.40;0.40;;;2.80;98.20;;;;;;5053230;28;20259;-69
2022/01/20 04:43:48;;;;;;;0.32;0.32;;;2.70;98.50;;;;;;5053723;28;20407;-69
2022/01/20 04:59:37;;;;;;;0.40;0.40;;;3.20;98.00;;;;;;5053736;28;20250;-69
2022/01/20 05:02:03;;;;;;;0.30;0.30;;;3.30;97.70;;;;;;5053427;28;20171;-69
2022/01/20 05:04:28;;;;;;;0.30;0.30;;;3.30;97.70;;;;;;5053369;28;20511;-69
2022/01/20 05:06:56;;;;;;;0.40;0.40;;;3.40;97.60;;;;;;5053116;28;20799;-69
2022/01/20 05:09:22;;;;;;;0.40;0.40;;;3.40;97.50;;;;;;5053269;28;20221;-69
2022/01/20 05:11:57;;;;;;;0.30;0.30;;;3.30;97.50;;;;;;5053452;28;20619;-69
2022/01/20 05:14:23;;;;;;;0.30;0.30;;;3.30;97.60;;;;;;5053479;28;20459;-69
2022/01/20 05:16:51;;;;;;;0.30;0.30;;;3.20;97.70;;;;;;5053169;28;20249;-69
2022/01/20 05:19:16;;;;;;;0.30;0.30;;;3.20;98.20;;;;;;5051923;28;20573;-69
2022/01/20 05:21:42;;;;;;;0.40;0.40;;;3.20;97.80;;;;;;5053358;28;20177;-69
2022/01/20 05:24:08;;;;;;;0.30;0.30;;;3.00;98.10;;;;;;5053197;28;20608;-69
2022/01/20 05:26:33;;;;;;;0.30;0.30;;;2.80;98.30;;;;;;5052953;28;20201;-69
2022/01/20 05:28:59;;;;;;;0.30;0.30;;;2.90;98.60;;;;;;5053059;28;20195;-69
2022/01/20 05:31:25;;;;;;;0.30;0.30;;;3.10;98.40;;;;;;5053323;28;20452;-69
2022/01/20 05:33:50;;;;;;;0.30;0.30;;;3.20;98.30;;;;;;5053195;28;20204;-69
2022/01/20 05:36:16;;;;;;;0.40;0.40;;;3.30;97.90;;;;;;5052916;28;20266;-69
2022/01/20 05:38:42;;;;;;;0.30;0.30;;;3.10;97.90;;;;;;5051670;28;20236;-69
2022/01/20 05:41:07;;;;;;;0.30;0.30;;;3.20;98.10;;;;;;5053031;28;20187;-69
2022/01/20 05:43:33;;;;;;;0.30;0.30;;;3.10;98.00;;;;;;5052916;28;20192;-69
2022/01/20 05:46:01;;;;;;;0.30;0.30;;;3.10;98.00;;;;;;5052931;28;20211;-69
2022/01/20 05:48:35;;;;;;;0.30;0.30;;;3.10;98.10;;;;;;5051554;28;20225;-69
2022/01/20 05:51:03;;;;;;;0.30;0.30;;;3.10;98.20;;;;;;5052874;28;20149;-69
2022/01/20 05:53:29;;;;;;;0.32;0.32;;;3.20;98.10;;;;;;5053111;28;20219;-69
2022/01/20 05:55:55;;;;;;;0.30;0.30;;;3.10;98.00;;;;;;5056493;28;20177;-69
2022/01/20 05:58:20;;;;;;;0.30;0.30;;;3.10;98.10;;;;;;5056599;28;20198;-69
2022/01/20 06:00:46;;;;;;;0.30;0.30;;;3.00;98.30;;;;;;5056392;28;20605;-69
2022/01/20 06:05:57;;;;;;;0.30;0.30;;;2.60;98.70;;;;;;5056436;28;20237;-69
2022/01/20 06:08:23;;;;;;;0.30;0.30;;;2.80;99.10;;;;;;5056332;28;20665;-69
2022/01/20 06:10:49;;;;;;;0.40;0.40;;;2.80;98.90;;;;;;5056284;28;20182;-69
2022/01/20 06:13:15;;;;;;;0.30;0.30;;;2.90;98.90;;;;;;5056276;28;20409;-69
2022/01/20 06:15:41;;;;;;;0.30;0.30;;;3.00;98.80;;;;;;5055952;28;20426;-69
2022/01/20 06:18:06;;;;;;;0.30;0.30;;;3.10;98.60;;;;;;5056180;28;20294;-69
2022/01/20 06:20:32;;;;;;;0.30;0.30;;;3.20;98.50;;;;;;5056425;28;20189;-69
2022/01/20 06:22:58;;;;;;;0.37;0.37;;;3.30;98.20;;;;;;5056221;28;20497;-69
2022/01/20 06:25:24;;;;;;;0.30;0.30;;;3.30;98.00;;;;;;5055832;28;20535;-69
2022/01/20 06:27:50;;;;;;;0.40;0.40;;;3.20;97.90;;;;;;5056030;28;20210;-69
2022/01/20 06:30:15;;;;;;;0.30;0.30;;;3.20;98.00;;;;;;5056023;28;20630;-69
2022/01/20 06:32:42;;;;;;;0.30;0.30;;;3.10;98.00;;;;;;5056034;28;20184;-69
2022/01/20 06:35:08;;;;;;;0.40;0.40;;;3.10;97.90;;;;;;5056082;28;20835;-69
2022/01/20 06:37:34;;;;;;;0.30;0.30;;;3.10;97.90;;;;;;5055566;28;20196;-69
2022/01/20 06:40:00;;;;;;;0.40;0.40;;;3.20;97.80;;;;;;5055754;28;20181;-69
2022/01/20 06:42:26;;;;;;;0.30;0.30;;;3.30;97.70;;;;;;5055981;28;20185;-69
2022/01/20 06:44:51;;;;;;;0.40;0.40;;;3.20;97.50;;;;;;5055783;28;20508;-69
2022/01/20 06:47:19;;;;;;;0.30;0.30;;;3.00;97.70;;;;;;5055379;28;20190;-69
2022/01/20 06:49:45;;;;;;;0.30;0.30;;;2.90;97.90;;;;;;5055603;28;20166;-69
2022/01/20 06:52:11;;;;;;;0.30;0.30;;;3.00;98.00;;;;;;5055825;28;20315;-69
2022/01/20 06:54:37;;;;;;;0.30;0.30;;;3.20;98.00;;;;;;5055773;28;20401;-69
2022/01/20 06:57:03;;;;;;;0.30;0.30;;;3.30;97.80;;;;;;5055473;28;20411;-69
2022/01/20 06:59:28;;;;;;;0.30;0.30;;;3.30;97.70;;;;;;5055275;28;20447;-69
2022/01/20 07:01:54;;;;;;;0.30;0.30;;;3.30;97.60;;;;;;5055319;28;20259;-69
2022/01/20 07:04:20;;;;;;;0.30;0.30;;;3.10;97.50;;;;;;5055638;28;20172;-69
2022/01/20 07:06:46;;;;;;;0.30;0.30;;;3.20;98.10;;;;;;5054792;28;20545;-69
2022/01/20 07:09:13;;;;;;;0.40;0.40;;;3.10;97.60;;;;;;5053950;28;20758;-69
2022/01/20 07:11:39;;;;;;;0.40;0.40;;;3.20;97.80;;;;;;5055372;28;20622;-69
2022/01/20 07:14:05;;;;;;;0.40;0.40;;;3.20;97.80;;;;;;5055418;28;20175;-69
2022/01/20 07:16:31;;;;;;;0.30;0.30;;;3.20;97.90;;;;;;5054917;28;20228;-69
2022/01/20 07:18:57;;;;;;;0.30;0.30;;;3.30;97.80;;;;;;5055077;28;20616;-69
2022/01/20 07:21:23;;;;;;;0.30;0.30;;;3.30;97.90;;;;;;5055143;28;20181;-69
2022/01/20 07:23:50;;;;;;;0.30;0.30;;;3.30;97.90;;;;;;5055125;28;20669;-69
2022/01/20 07:26:16;;;;;;;0.30;0.30;;;3.30;97.70;;;;;;5054868;28;20726;-69
2022/01/20 07:28:42;;;;;;;0.30;0.30;;;3.30;97.80;;;;;;5055063;28;20246;-69
2022/01/20 07:31:08;;;;;;;0.30;0.30;;;3.30;97.70;;;;;;5055079;28;20196;-69
2022/01/20 07:33:34;;;;;;;0.30;0.30;;;3.10;97.60;;;;;;5054851;28;20190;-69
2022/01/20 07:36:00;;;;;;;0.30;0.30;;;3.00;97.90;;;;;;5054625;28;20179;-69
2022/01/20 07:38:25;;;;;;;0.30;0.30;;;3.10;97.90;;;;;;5054761;28;20524;-69
2022/01/20 07:40:51;;;;;;;0.30;0.30;;;3.20;97.90;;;;;;5055390;28;20327;-69
2022/01/20 07:43:17;;;;;;;0.30;0.30;;;3.30;97.80;;;;;;5054807;28;20185;-69
2022/01/20 07:45:43;;;;;;;0.30;0.30;;;3.40;97.60;;;;;;5054756;28;20959;-69
2022/01/20 07:48:09;;;;;;;0.30;0.30;;;3.40;97.40;;;;;;5054461;28;20250;-68
2022/01/20 07:50:35;;;;;;;0.30;0.30;;;3.40;97.50;;;;;;5054600;28;20185;-69
2022/01/20 07:53:01;;;;;;;0.30;0.30;;;3.30;97.30;;;;;;5054517;28;20172;-69
2022/01/20 07:55:27;;;;;;;0.30;0.30;;;3.20;97.30;;;;;;5054204;28;20936;-69
2022/01/20 07:57:52;;;;;;;0.30;0.30;;;3.20;97.50;;;;;;5054409;28;20274;-69
2022/01/20 08:00:18;;;;;;;0.40;0.40;;;3.30;97.60;;;;;;5054246;28;20519;-69
2022/01/20 08:02:44;;;;;;;0.40;0.40;;;3.30;97.60;;;;;;5054501;28;20247;-69
2022/01/20 08:05:10;;;;;;;0.30;0.30;;;3.40;97.60;;;;;;5054241;28;20280;-69
2022/01/20 08:07:35;;;;;;;0.30;0.30;;;3.30;97.50;;;;;;5053841;28;20690;-69
2022/01/20 08:10:01;;;;;;;0.40;0.40;;;3.10;97.70;;;;;;5054120;28;20169;-69
2022/01/20 08:12:29;;;;;;;0.30;0.30;;;3.30;98.00;;;;;;5054237;28;20584;-69
2022/01/20 08:14:55;;;;;;;0.30;0.30;;;3.30;97.80;;;;;;5054306;28;21001;-69
2022/01/20 08:17:22;;;;;;;0.30;0.30;;;3.40;97.60;;;;;;5053180;28;20569;-69
2022/01/20 08:19:49;;;;;;;0.30;0.30;;;3.50;97.40;;;;;;5053958;28;20170;-69
2022/01/20 08:22:14;;;;;;;0.40;0.40;;;3.50;97.40;;;;;;5053876;28;20176;-68
2022/01/20 08:24:41;;;;;;;0.30;0.30;;;3.50;97.50;;;;;;5053882;28;20172;-69
2022/01/20 08:27:08;;;;;;;0.30;0.30;;;3.60;97.50;;;;;;5053596;28;20168;-69
2022/01/20 08:29:34;;;;;;;0.32;0.32;;;3.70;97.20;;;;;;5054191;28;20182;-69
2022/01/20 08:31:59;;;;;;;0.30;0.30;;;3.80;96.80;;;;;;5053936;28;20172;-69
2022/01/20 08:34:25;;;;;;;0.40;0.40;;;3.80;96.70;;;;;;5053809;28;20362;-69
2022/01/20 08:36:55;;;;;;;0.30;0.30;;;3.80;96.60;;;;;;5053613;28;20619;-69
2022/01/20 08:39:35;;;;;;;0.30;0.30;;;3.80;96.40;;;;;;5053488;28;20663;-69
2022/01/20 08:42:03;;;;;;;1.35;1.25;;;3.80;96.40;;;;;;5054265;28;20177;-69
2022/01/20 08:44:29;;;;;;;0.30;0.30;;;3.90;96.30;;;;;;5053550;28;20263;-69
2022/01/20 08:46:57;;;;;;;0.50;0.50;;;3.80;96.40;;;;;;5053462;28;20331;-69
2022/01/20 08:49:23;;;;;;;0.30;0.30;;;3.80;96.50;;;;;;5052658;28;20684;-69
2022/01/20 08:51:49;;;;;;;0.50;0.50;;;3.60;96.50;;;;;;5053665;28;20260;-69
2022/01/20 08:54:15;;;;;;;0.30;0.30;;;3.60;96.70;;;;;;5053376;28;20719;-69
2022/01/20 08:56:41;;;;;;;0.40;0.40;;;3.50;97.00;;;;;;5053265;28;20170;-69
2022/01/20 08:59:08;;;;;;;0.38;0.38;;;3.60;97.10;;;;;;5053209;28;20259;-69
2022/01/20 09:01:35;;;;;;;0.40;0.40;;;3.80;96.90;;;;;;5052194;28;20189;-69
2022/01/20 09:04:02;;;;;;;0.32;0.32;;;3.90;96.40;;;;;;5053325;28;20173;-69
2022/01/20 09:06:27;;;;;;;0.75;0.75;;;3.90;96.50;;;;;;5053116;28;20215;-69
2022/01/20 09:08:53;;;;;;;0.30;0.30;;;4.00;96.50;;;;;;5053268;28;20616;-69
2022/01/20 09:11:22;;;;;;;0.30;0.30;;;4.00;96.30;;;;;;5053416;28;20674;-69
2022/01/20 09:16:34;;;;;;;0.40;0.40;;;4.10;96.20;;;;;;5053173;28;20311;-69
2022/01/20 09:18:59;;;;;;;0.30;0.30;;;4.20;95.80;;;;;;5053350;28;20188;-69
2022/01/20 09:21:26;;;;;;;0.30;0.30;;;4.30;95.90;;;;;;5053035;28;20678;-69
2022/01/20 09:23:52;;;;;;;0.30;0.30;;;4.30;95.50;;;;;;5053146;28;20170;-69
2022/01/20 09:26:18;;;;;;;0.40;0.40;;;4.30;95.50;;;;;;5052856;28;20200;-69
2022/01/20 09:28:43;;;;;;;0.50;0.50;;;4.50;95.70;;;;;;5055113;28;20455;-69
2022/01/20 09:31:10;;;;;;;0.30;0.30;;;4.60;95.60;;;;;;5057336;28;20396;-69
2022/01/20 09:33:35;;;;;;;0.30;0.30;;;4.60;95.20;;;;;;5057300;28;20196;-69
2022/01/20 09:36:01;;;;;;;0.40;0.40;;;4.60;95.00;;;;;;5056939;28;20200;-69
2022/01/20 09:38:28;;;;;;;0.40;0.40;;;4.60;95.30;;;;;;5056932;28;20744;-69
2022/01/20 09:40:53;;;;;;;0.30;0.30;;;4.70;95.20;;;;;;5057186;28;20745;-69
2022/01/20 09:43:20;;;;;;;0.40;0.40;;;4.70;94.70;;;;;;5057010;28;20171;-69
2022/01/20 09:45:50;;;;;;;1.65;1.20;;;4.70;94.70;;;;;;5056815;28;20459;-69
2022/01/20 09:48:16;;;;;;;0.30;0.30;;;4.80;94.90;;;;;;5056848;28;20200;-69
2022/01/20 09:50:43;;;;;;;0.40;0.40;;;4.90;95.00;;;;;;5056807;28;20188;-69
2022/01/20 09:53:09;;;;;;;0.30;0.30;;;4.90;94.50;;;;;;5056726;28;20174;-69
2022/01/20 09:55:35;;;;;;;0.30;0.30;;;4.90;94.30;;;;;;5056592;28;20181;-69
2022/01/20 09:58:02;;;;;;;0.38;0.38;;;5.00;94.40;;;;;;5056572;28;20252;-69
2022/01/20 10:00:28;;;;;;;0.30;0.30;;;5.20;94.30;;;;;;5056613;28;20276;-69
2022/01/20 10:02:59;;;;;;;0.30;0.30;;;5.40;93.90;;;;;;5056744;28;20626;-69
2022/01/20 10:05:34;;;;;;;0.30;0.30;;;5.40;92.70;;;;;;5056313;28;20454;-69
2022/01/20 10:08:11;;;;;;;0.30;0.30;;;5.30;92.90;;;;;;5056500;28;20193;-69
2022/01/20 10:10:41;;;;;;;0.30;0.30;;;5.40;93.40;;;;;;5056509;28;20158;-69
2022/01/20 10:13:08;;;;;;;0.30;0.30;;;5.90;93.30;;;;;;5056632;28;20177;-69
2022/01/20 10:15:34;;;;;;;0.30;0.30;;;6.60;92.20;;;;;;5056273;28;20579;-69
2022/01/20 10:18:12;;;;;;;0.37;0.37;;;7.00;90.70;;;;;;5054976;28;20190;-69
2022/01/20 10:20:51;;;;;;;0.30;0.30;;;7.20;90.20;;;;;;5056484;28;20632;-69
2022/01/20 10:23:38;;;;;;;0.40;0.40;;;7.10;90.00;;;;;;5056449;28;20189;-69
2022/01/20 10:26:06;;;;;;;0.30;0.30;;;7.20;89.90;;;;;;5055886;28;20201;-69
2022/01/20 10:28:59;;;;;;;0.32;0.32;;;7.10;90.20;;;;;;5056010;28;20193;-69
2022/01/20 10:31:41;;;;;;;0.40;0.40;;;7.30;90.10;;;;;;5056288;28;20168;-69
2022/01/20 10:34:20;;;;;;;0.40;0.40;;;7.80;88.30;;;;;;5056168;28;20170;-69
2022/01/20 10:36:53;;;;;;;0.40;0.40;;;7.90;86.80;;;;;;5055945;28;20198;-69
2022/01/20 10:39:40;;;;;;;0.40;0.40;;;8.10;86.00;;;;;;5055361;28;20244;-69
2022/01/20 10:42:13;;;;;;;0.32;0.32;;;8.10;86.30;;;;;;5055834;28;20542;-69
2022/01/20 10:44:59;;;;;;;0.30;0.30;;;7.80;85.50;;;;;;5055974;28;20184;-69
2022/01/20 10:47:31;;;;;;;0.40;0.40;;;8.10;87.30;;;;;;5055620;28;20190;-69
2022/01/20 10:50:12;;;;;;;0.30;0.30;;;8.30;85.30;;;;;;5055818;28;20181;-69
2022/01/20 10:52:41;;;;;;;0.40;0.40;;;8.20;83.80;;;;;;5055909;28;20169;-69
2022/01/20 10:55:23;;;;;;;0.60;0.60;;;8.30;84.80;;;;;;5055734;28;20582;-69
2022/01/20 10:57:50;;;;;;;0.40;0.40;;;9.20;82.10;;;;;;5054276;28;20746;-69
2022/01/20 11:00:19;;;;;;;0.38;0.38;;;10.20;78.00;;;;;;5055451;28;20190;-69
2022/01/20 11:02:52;;;;;;;0.35;0.35;;;10.60;74.60;;;;;;5055635;28;20169;-69
2022/01/20 11:05:18;;;;;;;0.30;0.30;;;10.50;72.50;;;;;;5056059;28;20200;-69
2022/01/20 11:07:45;;;;;;;0.40;0.40;;;9.90;74.40;;;;;;5055324;28;20190;-69
2022/01/20 11:10:11;;;;;;;0.30;0.30;;;9.30;75.00;;;;;;5055855;28;20518;-69
2022/01/20 11:12:39;;;;;;;0.40;0.40;;;8.90;78.20;;;;;;5055377;28;20162;-69
2022/01/20 11:15:08;;;;;;;0.40;0.40;;;8.40;77.90;;;;;;5055530;28;20183;-69
2022/01/20 11:17:35;;;;;;;0.38;0.38;;;7.80;80.90;;;;;;5055070;28;20186;-69
2022/01/20 11:20:11;;;;;;;0.30;0.30;;;7.50;81.20;;;;;;5055132;28;20178;-69
2022/01/20 11:22:51;;;;;;;5.28;2.45;;;7.10;83.00;;;;;;5055248;28;20657;-69
2022/01/20 11:25:20;;;;;;;0.35;0.35;;;6.80;85.90;;;;;;5055229;28;20616;-69
2022/01/20 11:27:45;;;;;;;0.40;0.40;;;6.50;88.20;;;;;;5054771;28;20269;-69
2022/01/20 11:30:26;;;;;;;0.40;0.40;;;6.00;88.10;;;;;;5055021;28;20257;-69
2022/01/20 11:33:10;;;;;;;0.30;0.30;;;6.00;88.80;;;;;;5054995;28;20146;-69
2022/01/20 11:35:43;;;;;;;0.32;0.32;;;6.00;89.30;;;;;;5054719;28;20227;-69
2022/01/20 11:38:11;;;;;;;0.30;0.30;;;5.90;90.00;;;;;;5054855;28;20564;-69
2022/01/20 11:40:54;;;;;;;0.30;0.30;;;6.00;90.20;;;;;;5054746;28;20539;-69
2022/01/20 11:43:42;;;;;;;0.40;0.40;;;6.10;90.20;;;;;;5054903;28;20182;-69
2022/01/20 11:46:18;;;;;;;0.40;0.40;;;6.00;89.70;;;;;;5054489;28;20194;-69
2022/01/20 11:49:06;;;;;;;0.30;0.30;;;6.10;90.60;;;;;;5054697;28;20279;-69
2022/01/20 11:51:57;;;;;;;0.40;0.40;;;5.90;90.50;;;;;;5053690;28;20178;-69
2022/01/20 11:54:38;;;;;;;0.30;0.30;;;5.90;90.50;;;;;;5054631;28;20170;-69
2022/01/20 11:57:11;;;;;;;0.40;0.40;;;5.80;90.30;;;;;;5054490;28;20177;-69
2022/01/20 11:59:40;;;;;;;0.40;0.40;;;5.70;90.60;;;;;;5054295;28;20197;-69
2022/01/20 12:02:07;;;;;;;0.30;0.30;;;5.70;90.80;;;;;;5054474;28;20174;-69
2022/01/20 12:04:40;;;;;;;0.40;0.40;;;5.70;91.20;;;;;;5054344;28;20202;-69
2022/01/20 12:07:08;;;;;;;0.40;0.40;;;5.60;91.10;;;;;;5054160;28;20538;-69
2022/01/20 12:09:39;;;;;;;0.40;0.40;;;6.00;90.30;;;;;;5054051;28;20307;-69
2022/01/20 12:12:17;;;;;;;0.40;0.40;;;6.60;89.20;;;;;;5054241;28;20185;-69
2022/01/20 12:14:44;;;;;;;0.30;0.30;;;6.90;87.20;;;;;;5054345;28;20300;-69
2022/01/20 12:17:14;;;;;;;0.30;0.30;;;7.00;85.70;;;;;;5053996;28;20582;-69
2022/01/20 12:20:00;;;;;;;0.40;0.40;;;7.40;86.60;;;;;;5054402;28;20637;-69
2022/01/20 12:22:26;;;;;;;0.40;0.40;;;7.80;83.00;;;;;;5053626;28;20656;-69
2022/01/20 12:24:53;;;;;;;0.30;0.30;;;8.00;83.70;;;;;;5053637;28;20191;-69
2022/01/20 12:27:21;;;;;;;0.40;0.40;;;8.40;83.80;;;;;;5053597;28;20209;-69
2022/01/20 12:29:46;;;;;;;0.30;0.30;;;8.40;79.40;;;;;;5053926;28;20176;-69
2022/01/20 12:32:17;;;;;;;0.40;0.40;;;8.10;79.60;;;;;;5053888;28;20167;-69
2022/01/20 12:34:43;;;;;;;0.40;0.40;;;8.30;80.20;;;;;;5053751;28;20255;-69
2022/01/20 12:37:09;;;;;;;0.30;0.30;;;8.40;81.00;;;;;;5053524;28;20245;-69
2022/01/20 12:39:39;;;;;;;0.40;0.40;;;7.80;81.30;;;;;;5053698;28;20194;-69
2022/01/20 12:42:08;;;;;;;0.30;0.30;;;7.30;84.00;;;;;;5053660;28;20535;-69
2022/01/20 12:44:40;;;;;;;0.40;0.40;;;7.00;85.80;;;;;;5053985;28;20553;-69
2022/01/20 12:47:07;;;;;;;0.38;0.38;;;6.90;88.00;;;;;;5053478;28;20206;-69
2022/01/20 12:49:33;;;;;;;0.40;0.40;;;6.70;88.60;;;;;;5053405;28;20190;-69
2022/01/20 12:51:58;;;;;;;0.40;0.40;;;6.70;89.00;;;;;;5053966;28;20173;-69
2022/01/20 12:54:29;;;;;;;0.40;0.40;;;6.70;89.70;;;;;;5053571;28;20166;-69
2022/01/20 12:57:02;;;;;;;0.40;0.40;;;6.80;89.90;;;;;;5053308;28;20170;-69
2022/01/20 12:59:32;;;;;;;0.40;0.40;;;6.90;89.50;;;;;;5053349;28;20749;-69
2022/01/20 13:02:01;;;;;;;0.40;0.40;;;7.10;90.00;;;;;;5053641;28;20530;-69
2022/01/20 13:04:30;;;;;;;0.30;0.30;;;6.70;88.40;;;;;;5053173;28;20201;-69
2022/01/20 13:06:59;;;;;;;0.40;0.40;;;6.60;90.00;;;;;;5053145;28;20205;-69
2022/01/20 13:09:47;;;;;;;0.40;0.40;;;6.70;90.40;;;;;;5053269;28;20213;-69
2022/01/20 13:12:15;;;;;;;2.05;1.75;;;6.60;89.70;;;;;;5053446;28;20198;-69
2022/01/20 13:14:51;;;;;;;0.40;0.40;;;6.40;90.40;;;;;;5053470;28;20169;-69
2022/01/20 13:17:30;;;;;;;0.40;0.40;;;6.50;90.10;;;;;;5053048;28;20591;-69
2022/01/20 13:19:58;;;;;;;0.40;0.40;;;6.60;89.70;;;;;;5053468;28;20253;-69
2022/01/20 13:25:17;;;;;;;0.40;0.40;;;6.40;89.90;;;;;;5053271;28;20209;-69
2022/01/20 13:27:59;;;;;;;0.40;0.40;;;5.90;90.20;;;;;;5052892;28;20182;-69
2022/01/20 13:30:30;;;;;;;0.40;0.40;;;5.50;91.10;;;;;;5053292;28;20165;-69
2022/01/20 13:32:57;;;;;;;0.40;0.40;;;5.10;91.80;;;;;;5053360;28;20345;-70
2022/01/20 13:35:23;;;;;;;0.30;0.30;;;4.60;92.70;;;;;;5053085;28;20546;-69
2022/01/20 13:38:00;;;;;;;0.40;0.40;;;4.30;93.80;;;;;;5052965;28;20265;-69
2022/01/20 13:40:25;;;;;;;0.30;0.30;;;4.10;94.70;;;;;;5053024;28;20170;-69
2022/01/20 13:45:41;;;;;;;0.30;0.30;;;3.50;96.20;;;;;;5052931;28;20447;-69
2022/01/20 13:48:08;;;;;;;0.30;0.30;;;3.40;97.00;;;;;;5053019;28;20686;-69
2022/01/20 13:50:37;;;;;;;0.30;0.30;;;3.20;97.50;;;;;;5052829;28;20186;-69
2022/01/20 13:53:26;;;;;;;0.30;0.30;;;3.40;97.80;;;;;;5052869;28;20231;-69
2022/01/20 13:55:52;;;;;;;0.30;0.30;;;3.20;97.80;;;;;;5052767;28;20177;-69
2022/01/20 13:58:22;;;;;;;0.30;0.30;;;3.10;98.20;;;;;;5052800;28;20285;-69
2022/01/20 14:00:47;;;;;;;0.40;0.40;;;3.00;98.30;;;;;;5052672;28;20272;-68
2022/01/20 14:03:13;;;;;;;0.30;0.30;;;2.80;98.70;;;;;;5052784;28;20267;-69
2022/01/20 14:05:40;;;;;;;0.40;0.40;;;2.70;99.00;;;;;;5051194;28;20466;-69
2022/01/20 14:08:06;;;;;;;0.30;0.30;;;2.70;99.30;;;;;;5052614;28;20218;-69
2022/01/20 14:10:31;;;;;;;0.30;0.30;;;2.80;99.30;;;;;;5052691;28;20207;-68
2022/01/20 14:12:58;;;;;;;0.30;0.30;;;2.70;99.20;;;;;;5052799;28;20643;-69
2022/01/20 14:15:25;;;;;;;0.40;0.40;;;2.90;99.30;;;;;;5053849;28;20206;-69
2022/01/20 14:17:54;;;;;;;0.32;0.32;;;3.10;99.10;;;;;;5056076;28;20216;-69
2022/01/20 14:20:23;;;;;;;0.30;0.30;;;3.10;98.90;;;;;;5056072;28;20631;-69
2022/01/20 14:22:52;;;;;;;0.30;0.30;;;3.10;98.70;;;;;;5056379;28;20180;-69
2022/01/20 14:25:18;;;;;;;0.40;0.40;;;3.10;98.80;;;;;;5056108;28;20641;-69
2022/01/20 14:27:44;;;;;;;0.30;0.30;;;3.20;98.70;;;;;;5055918;28;20205;-69